sensor_id;sensor_type;location;lat;lon;timestamp;P1;durP1;ratioP1;P2;durP2;ratioP2
77276;SDS011;66330;52.166;9.978;2023-05-07T00:00:08;28.80;;;25.83;;
77276;SDS011;66330;52.166;9.978;2023-05-07T00:02:34;26.13;;;23.33;;
77276;SDS011;66330;52.166;9.978;2023-05-07T00:05:00;28.10;;;25.20;;
77276;SDS011;66330;52.166;9.978;2023-05-07T00:07:27;27.60;;;24.80;;
77276;SDS011;66330;52.166;9.978;2023-05-07T00:09:53;27.73;;;23.80;;
77276;SDS011;66330;52.166;9.978;2023-05-07T00:12:18;28.37;;;24.63;;
77276;SDS011;66330;52.166;9.978;2023-05-07T00:14:44;26.40;;;23.60;;
77276;SDS011;66330;52.166;9.978;2023-05-07T00:17:10;26.90;;;23.37;;
77276;SDS011;66330;52.166;9.978;2023-05-07T00:19:36;28.47;;;24.87;;
77276;SDS011;66330;52.166;9.978;2023-05-07T00:22:01;26.97;;;24.17;;
77276;SDS011;66330;52.166;9.978;2023-05-07T00:24:27;26.60;;;23.80;;
77276;SDS011;66330;52.166;9.978;2023-05-07T00:26:53;28.47;;;23.80;;
77276;SDS011;66330;52.166;9.978;2023-05-07T00:29:18;26.90;;;24.00;;
77276;SDS011;66330;52.166;9.978;2023-05-07T00:31:44;27.73;;;24.83;;
77276;SDS011;66330;52.166;9.978;2023-05-07T00:34:10;28.80;;;24.83;;
77276;SDS011;66330;52.166;9.978;2023-05-07T00:36:36;27.13;;;23.60;;
77276;SDS011;66330;52.166;9.978;2023-05-07T00:39:01;26.23;;;23.40;;
77276;SDS011;66330;52.166;9.978;2023-05-07T00:41:28;25.87;;;22.80;;
77276;SDS011;66330;52.166;9.978;2023-05-07T00:43:55;27.97;;;22.90;;
77276;SDS011;66330;52.166;9.978;2023-05-07T00:46:21;25.10;;;22.40;;
77276;SDS011;66330;52.166;9.978;2023-05-07T00:48:47;24.60;;;21.67;;
77276;SDS011;66330;52.166;9.978;2023-05-07T00:51:14;28.57;;;23.10;;
77276;SDS011;66330;52.166;9.978;2023-05-07T00:53:40;25.70;;;21.43;;
77276;SDS011;66330;52.166;9.978;2023-05-07T00:56:06;25.47;;;22.70;;
77276;SDS011;66330;52.166;9.978;2023-05-07T00:58:32;25.30;;;22.20;;
77276;SDS011;66330;52.166;9.978;2023-05-07T01:00:58;27.03;;;23.43;;
77276;SDS011;66330;52.166;9.978;2023-05-07T01:03:24;22.90;;;20.10;;
77276;SDS011;66330;52.166;9.978;2023-05-07T01:05:50;25.77;;;22.67;;
77276;SDS011;66330;52.166;9.978;2023-05-07T01:08:17;29.23;;;22.50;;
77276;SDS011;66330;52.166;9.978;2023-05-07T01:10:43;28.47;;;23.03;;
77276;SDS011;66330;52.166;9.978;2023-05-07T01:13:10;22.53;;;19.13;;
77276;SDS011;66330;52.166;9.978;2023-05-07T01:15:38;22.10;;;19.30;;
77276;SDS011;66330;52.166;9.978;2023-05-07T01:18:06;24.90;;;20.77;;
77276;SDS011;66330;52.166;9.978;2023-05-07T01:20:31;25.80;;;21.00;;
77276;SDS011;66330;52.166;9.978;2023-05-07T01:22:57;22.80;;;19.83;;
77276;SDS011;66330;52.166;9.978;2023-05-07T01:25:25;22.87;;;19.03;;
77276;SDS011;66330;52.166;9.978;2023-05-07T01:27:51;25.20;;;21.60;;
77276;SDS011;66330;52.166;9.978;2023-05-07T01:30:17;23.07;;;20.20;;
77276;SDS011;66330;52.166;9.978;2023-05-07T01:32:48;25.47;;;21.10;;
77276;SDS011;66330;52.166;9.978;2023-05-07T01:35:26;25.10;;;19.87;;
77276;SDS011;66330;52.166;9.978;2023-05-07T01:37:55;24.03;;;18.90;;
77276;SDS011;66330;52.166;9.978;2023-05-07T01:40:22;20.47;;;17.80;;
77276;SDS011;66330;52.166;9.978;2023-05-07T01:42:49;23.07;;;18.83;;
77276;SDS011;66330;52.166;9.978;2023-05-07T01:45:15;21.10;;;17.27;;
77276;SDS011;66330;52.166;9.978;2023-05-07T01:47:41;18.40;;;16.50;;
77276;SDS011;66330;52.166;9.978;2023-05-07T01:50:07;20.33;;;16.20;;
77276;SDS011;66330;52.166;9.978;2023-05-07T01:52:34;19.20;;;15.67;;
77276;SDS011;66330;52.166;9.978;2023-05-07T01:55:02;17.77;;;15.97;;
77276;SDS011;66330;52.166;9.978;2023-05-07T01:57:28;19.30;;;15.60;;
77276;SDS011;66330;52.166;9.978;2023-05-07T01:59:53;17.13;;;15.43;;
77276;SDS011;66330;52.166;9.978;2023-05-07T02:02:19;18.23;;;16.43;;
77276;SDS011;66330;52.166;9.978;2023-05-07T02:04:44;16.90;;;15.10;;
77276;SDS011;66330;52.166;9.978;2023-05-07T02:07:10;20.90;;;15.60;;
77276;SDS011;66330;52.166;9.978;2023-05-07T02:09:35;16.87;;;14.97;;
77276;SDS011;66330;52.166;9.978;2023-05-07T02:12:01;17.33;;;15.30;;
77276;SDS011;66330;52.166;9.978;2023-05-07T02:14:27;18.00;;;15.57;;
77276;SDS011;66330;52.166;9.978;2023-05-07T02:16:52;17.33;;;14.47;;
77276;SDS011;66330;52.166;9.978;2023-05-07T02:19:18;16.63;;;14.17;;
77276;SDS011;66330;52.166;9.978;2023-05-07T02:21:46;17.77;;;14.63;;
77276;SDS011;66330;52.166;9.978;2023-05-07T02:24:11;17.53;;;15.03;;
77276;SDS011;66330;52.166;9.978;2023-05-07T02:26:37;17.53;;;15.10;;
77276;SDS011;66330;52.166;9.978;2023-05-07T02:29:04;17.17;;;15.47;;
77276;SDS011;66330;52.166;9.978;2023-05-07T02:31:30;16.83;;;15.13;;
77276;SDS011;66330;52.166;9.978;2023-05-07T02:33:56;16.33;;;14.47;;
77276;SDS011;66330;52.166;9.978;2023-05-07T02:36:21;16.10;;;14.40;;
77276;SDS011;66330;52.166;9.978;2023-05-07T02:38:47;17.67;;;15.53;;
77276;SDS011;66330;52.166;9.978;2023-05-07T02:41:12;16.20;;;14.50;;
77276;SDS011;66330;52.166;9.978;2023-05-07T02:43:38;16.07;;;13.50;;
77276;SDS011;66330;52.166;9.978;2023-05-07T02:46:04;17.00;;;14.60;;
77276;SDS011;66330;52.166;9.978;2023-05-07T02:48:30;16.77;;;15.17;;
77276;SDS011;66330;52.166;9.978;2023-05-07T02:50:57;17.07;;;15.27;;
77276;SDS011;66330;52.166;9.978;2023-05-07T02:53:23;15.30;;;13.80;;
77276;SDS011;66330;52.166;9.978;2023-05-07T02:55:51;16.80;;;15.03;;
77276;SDS011;66330;52.166;9.978;2023-05-07T02:58:21;16.17;;;14.40;;
77276;SDS011;66330;52.166;9.978;2023-05-07T03:00:46;16.47;;;14.77;;
77276;SDS011;66330;52.166;9.978;2023-05-07T03:03:12;15.60;;;14.00;;
77276;SDS011;66330;52.166;9.978;2023-05-07T03:05:37;17.50;;;15.90;;
77276;SDS011;66330;52.166;9.978;2023-05-07T03:08:03;16.17;;;14.57;;
77276;SDS011;66330;52.166;9.978;2023-05-07T03:10:29;16.17;;;14.50;;
77276;SDS011;66330;52.166;9.978;2023-05-07T03:12:55;17.80;;;15.90;;
77276;SDS011;66330;52.166;9.978;2023-05-07T03:15:20;16.60;;;14.83;;
77276;SDS011;66330;52.166;9.978;2023-05-07T03:17:46;16.60;;;14.70;;
77276;SDS011;66330;52.166;9.978;2023-05-07T03:20:12;16.83;;;14.73;;
77276;SDS011;66330;52.166;9.978;2023-05-07T03:22:38;15.10;;;13.50;;
77276;SDS011;66330;52.166;9.978;2023-05-07T03:25:04;16.63;;;15.00;;
77276;SDS011;66330;52.166;9.978;2023-05-07T03:27:30;14.47;;;12.97;;
77276;SDS011;66330;52.166;9.978;2023-05-07T03:29:56;16.47;;;13.90;;
77276;SDS011;66330;52.166;9.978;2023-05-07T03:32:21;15.13;;;13.47;;
77276;SDS011;66330;52.166;9.978;2023-05-07T03:34:47;16.23;;;14.53;;
77276;SDS011;66330;52.166;9.978;2023-05-07T03:37:12;19.20;;;14.77;;
77276;SDS011;66330;52.166;9.978;2023-05-07T03:39:38;16.20;;;14.50;;
77276;SDS011;66330;52.166;9.978;2023-05-07T03:42:03;15.13;;;12.93;;
77276;SDS011;66330;52.166;9.978;2023-05-07T03:44:29;14.67;;;13.27;;
77276;SDS011;66330;52.166;9.978;2023-05-07T03:46:54;17.07;;;14.63;;
77276;SDS011;66330;52.166;9.978;2023-05-07T03:49:20;14.43;;;12.93;;
77276;SDS011;66330;52.166;9.978;2023-05-07T03:51:46;14.37;;;12.87;;
77276;SDS011;66330;52.166;9.978;2023-05-07T03:54:11;15.20;;;13.70;;
77276;SDS011;66330;52.166;9.978;2023-05-07T03:56:37;15.90;;;14.30;;
77276;SDS011;66330;52.166;9.978;2023-05-07T03:59:02;15.60;;;14.00;;
77276;SDS011;66330;52.166;9.978;2023-05-07T04:01:28;14.10;;;12.70;;
77276;SDS011;66330;52.166;9.978;2023-05-07T04:03:54;14.23;;;12.67;;
77276;SDS011;66330;52.166;9.978;2023-05-07T04:06:19;15.07;;;13.47;;
77276;SDS011;66330;52.166;9.978;2023-05-07T04:08:45;13.60;;;12.30;;
77276;SDS011;66330;52.166;9.978;2023-05-07T04:11:11;15.47;;;13.87;;
77276;SDS011;66330;52.166;9.978;2023-05-07T04:13:36;13.30;;;11.90;;
77276;SDS011;66330;52.166;9.978;2023-05-07T04:16:02;15.80;;;13.07;;
77276;SDS011;66330;52.166;9.978;2023-05-07T04:18:28;14.73;;;13.13;;
77276;SDS011;66330;52.166;9.978;2023-05-07T04:20:54;16.33;;;13.80;;
77276;SDS011;66330;52.166;9.978;2023-05-07T04:23:20;14.60;;;13.20;;
77276;SDS011;66330;52.166;9.978;2023-05-07T04:25:45;14.80;;;12.13;;
77276;SDS011;66330;52.166;9.978;2023-05-07T04:28:11;14.23;;;12.83;;
77276;SDS011;66330;52.166;9.978;2023-05-07T04:30:37;16.97;;;13.07;;
77276;SDS011;66330;52.166;9.978;2023-05-07T04:33:03;13.40;;;12.07;;
77276;SDS011;66330;52.166;9.978;2023-05-07T04:35:28;14.70;;;13.20;;
77276;SDS011;66330;52.166;9.978;2023-05-07T04:37:54;14.73;;;13.10;;
77276;SDS011;66330;52.166;9.978;2023-05-07T04:40:20;15.17;;;13.57;;
77276;SDS011;66330;52.166;9.978;2023-05-07T04:42:45;13.30;;;11.90;;
77276;SDS011;66330;52.166;9.978;2023-05-07T04:45:11;13.53;;;12.10;;
77276;SDS011;66330;52.166;9.978;2023-05-07T04:47:37;13.70;;;12.27;;
77276;SDS011;66330;52.166;9.978;2023-05-07T04:50:03;13.57;;;12.10;;
77276;SDS011;66330;52.166;9.978;2023-05-07T04:52:30;14.90;;;13.50;;
77276;SDS011;66330;52.166;9.978;2023-05-07T04:54:56;14.30;;;12.80;;
77276;SDS011;66330;52.166;9.978;2023-05-07T04:57:23;14.40;;;12.90;;
77276;SDS011;66330;52.166;9.978;2023-05-07T04:59:49;14.10;;;12.60;;
77276;SDS011;66330;52.166;9.978;2023-05-07T05:02:15;16.17;;;13.93;;
77276;SDS011;66330;52.166;9.978;2023-05-07T05:04:41;13.57;;;12.07;;
77276;SDS011;66330;52.166;9.978;2023-05-07T05:07:06;14.80;;;12.00;;
77276;SDS011;66330;52.166;9.978;2023-05-07T05:09:32;13.97;;;12.47;;
77276;SDS011;66330;52.166;9.978;2023-05-07T05:11:57;15.13;;;12.53;;
77276;SDS011;66330;52.166;9.978;2023-05-07T05:14:24;11.43;;;10.33;;
77276;SDS011;66330;52.166;9.978;2023-05-07T05:16:50;13.37;;;12.07;;
77276;SDS011;66330;52.166;9.978;2023-05-07T05:19:15;14.70;;;12.90;;
77276;SDS011;66330;52.166;9.978;2023-05-07T05:21:41;13.37;;;11.87;;
77276;SDS011;66330;52.166;9.978;2023-05-07T05:24:07;11.90;;;10.70;;
77276;SDS011;66330;52.166;9.978;2023-05-07T05:26:33;11.60;;;10.40;;
77276;SDS011;66330;52.166;9.978;2023-05-07T05:28:59;11.73;;;10.57;;
77276;SDS011;66330;52.166;9.978;2023-05-07T05:31:25;11.77;;;10.57;;
77276;SDS011;66330;52.166;9.978;2023-05-07T05:33:50;11.50;;;10.30;;
77276;SDS011;66330;52.166;9.978;2023-05-07T05:36:16;14.20;;;12.13;;
77276;SDS011;66330;52.166;9.978;2023-05-07T05:38:42;12.73;;;11.20;;
77276;SDS011;66330;52.166;9.978;2023-05-07T05:41:07;10.90;;;9.80;;
77276;SDS011;66330;52.166;9.978;2023-05-07T05:43:33;10.60;;;9.60;;
77276;SDS011;66330;52.166;9.978;2023-05-07T05:45:58;11.37;;;10.17;;
77276;SDS011;66330;52.166;9.978;2023-05-07T05:48:25;11.20;;;10.10;;
77276;SDS011;66330;52.166;9.978;2023-05-07T05:50:51;10.73;;;9.73;;
77276;SDS011;66330;52.166;9.978;2023-05-07T05:53:16;11.17;;;10.07;;
77276;SDS011;66330;52.166;9.978;2023-05-07T05:55:42;11.50;;;10.40;;
77276;SDS011;66330;52.166;9.978;2023-05-07T05:58:08;10.70;;;9.70;;
77276;SDS011;66330;52.166;9.978;2023-05-07T06:00:34;11.70;;;10.60;;
77276;SDS011;66330;52.166;9.978;2023-05-07T06:03:00;11.27;;;10.10;;
77276;SDS011;66330;52.166;9.978;2023-05-07T06:05:25;10.13;;;9.13;;
77276;SDS011;66330;52.166;9.978;2023-05-07T06:07:51;10.90;;;9.80;;
77276;SDS011;66330;52.166;9.978;2023-05-07T06:10:16;10.77;;;9.67;;
77276;SDS011;66330;52.166;9.978;2023-05-07T06:12:42;12.50;;;11.30;;
77276;SDS011;66330;52.166;9.978;2023-05-07T06:15:08;10.83;;;9.60;;
77276;SDS011;66330;52.166;9.978;2023-05-07T06:17:33;10.00;;;9.10;;
77276;SDS011;66330;52.166;9.978;2023-05-07T06:19:59;9.50;;;8.30;;
77276;SDS011;66330;52.166;9.978;2023-05-07T06:22:25;9.83;;;8.93;;
77276;SDS011;66330;52.166;9.978;2023-05-07T06:24:50;9.37;;;8.50;;
77276;SDS011;66330;52.166;9.978;2023-05-07T06:27:16;10.23;;;9.30;;
77276;SDS011;66330;52.166;9.978;2023-05-07T06:29:41;10.10;;;9.10;;
77276;SDS011;66330;52.166;9.978;2023-05-07T06:32:11;8.73;;;7.93;;
77276;SDS011;66330;52.166;9.978;2023-05-07T06:34:37;8.63;;;7.80;;
77276;SDS011;66330;52.166;9.978;2023-05-07T06:37:04;8.73;;;7.83;;
77276;SDS011;66330;52.166;9.978;2023-05-07T06:39:30;8.70;;;7.90;;
77276;SDS011;66330;52.166;9.978;2023-05-07T06:41:56;9.00;;;8.10;;
77276;SDS011;66330;52.166;9.978;2023-05-07T06:44:22;8.00;;;7.20;;
77276;SDS011;66330;52.166;9.978;2023-05-07T06:46:48;8.57;;;7.77;;
77276;SDS011;66330;52.166;9.978;2023-05-07T06:49:13;8.43;;;7.63;;
77276;SDS011;66330;52.166;9.978;2023-05-07T06:51:39;7.80;;;7.10;;
77276;SDS011;66330;52.166;9.978;2023-05-07T06:54:04;7.70;;;7.00;;
77276;SDS011;66330;52.166;9.978;2023-05-07T06:56:30;8.30;;;7.50;;
77276;SDS011;66330;52.166;9.978;2023-05-07T06:58:56;7.87;;;7.07;;
77276;SDS011;66330;52.166;9.978;2023-05-07T07:01:22;8.33;;;7.53;;
77276;SDS011;66330;52.166;9.978;2023-05-07T07:03:48;9.07;;;8.27;;
77276;SDS011;66330;52.166;9.978;2023-05-07T07:06:13;7.37;;;6.67;;
77276;SDS011;66330;52.166;9.978;2023-05-07T07:08:39;8.07;;;7.37;;
77276;SDS011;66330;52.166;9.978;2023-05-07T07:11:05;8.80;;;7.90;;
77276;SDS011;66330;52.166;9.978;2023-05-07T07:13:31;8.80;;;8.00;;
77276;SDS011;66330;52.166;9.978;2023-05-07T07:15:57;7.83;;;7.13;;
77276;SDS011;66330;52.166;9.978;2023-05-07T07:18:22;8.50;;;7.80;;
77276;SDS011;66330;52.166;9.978;2023-05-07T07:20:48;7.80;;;7.20;;
77276;SDS011;66330;52.166;9.978;2023-05-07T07:23:13;9.23;;;8.43;;
77276;SDS011;66330;52.166;9.978;2023-05-07T07:25:39;7.73;;;7.00;;
77276;SDS011;66330;52.166;9.978;2023-05-07T07:28:05;8.53;;;7.77;;
77276;SDS011;66330;52.166;9.978;2023-05-07T07:30:31;8.23;;;7.53;;
77276;SDS011;66330;52.166;9.978;2023-05-07T07:32:57;8.53;;;7.77;;
77276;SDS011;66330;52.166;9.978;2023-05-07T07:35:27;8.27;;;7.57;;
77276;SDS011;66330;52.166;9.978;2023-05-07T07:37:53;9.60;;;8.80;;
77276;SDS011;66330;52.166;9.978;2023-05-07T07:40:19;9.40;;;8.50;;
77276;SDS011;66330;52.166;9.978;2023-05-07T07:42:44;9.67;;;8.87;;
77276;SDS011;66330;52.166;9.978;2023-05-07T07:45:10;11.27;;;10.27;;
77276;SDS011;66330;52.166;9.978;2023-05-07T07:47:36;10.03;;;9.23;;
77276;SDS011;66330;52.166;9.978;2023-05-07T07:50:02;10.57;;;9.67;;
77276;SDS011;66330;52.166;9.978;2023-05-07T07:52:28;9.53;;;8.73;;
77276;SDS011;66330;52.166;9.978;2023-05-07T07:54:53;11.33;;;10.43;;
77276;SDS011;66330;52.166;9.978;2023-05-07T07:57:19;9.63;;;8.80;;
77276;SDS011;66330;52.166;9.978;2023-05-07T07:59:44;10.03;;;9.13;;
77276;SDS011;66330;52.166;9.978;2023-05-07T08:02:10;11.67;;;10.77;;
77276;SDS011;66330;52.166;9.978;2023-05-07T08:04:35;11.07;;;10.17;;
77276;SDS011;66330;52.166;9.978;2023-05-07T08:07:02;10.20;;;9.40;;
77276;SDS011;66330;52.166;9.978;2023-05-07T08:09:28;10.80;;;9.83;;
77276;SDS011;66330;52.166;9.978;2023-05-07T08:11:53;10.90;;;9.90;;
77276;SDS011;66330;52.166;9.978;2023-05-07T08:14:19;10.23;;;9.37;;
77276;SDS011;66330;52.166;9.978;2023-05-07T08:16:44;11.03;;;10.13;;
77276;SDS011;66330;52.166;9.978;2023-05-07T08:19:10;12.13;;;11.03;;
77276;SDS011;66330;52.166;9.978;2023-05-07T08:21:38;11.40;;;10.40;;
77276;SDS011;66330;52.166;9.978;2023-05-07T08:24:04;10.23;;;9.33;;
77276;SDS011;66330;52.166;9.978;2023-05-07T08:26:29;11.87;;;10.83;;
77276;SDS011;66330;52.166;9.978;2023-05-07T08:28:55;10.40;;;9.50;;
77276;SDS011;66330;52.166;9.978;2023-05-07T08:31:20;11.00;;;10.10;;
77276;SDS011;66330;52.166;9.978;2023-05-07T08:33:46;10.70;;;9.80;;
77276;SDS011;66330;52.166;9.978;2023-05-07T08:36:12;10.40;;;9.30;;
77276;SDS011;66330;52.166;9.978;2023-05-07T08:38:37;10.00;;;9.10;;
77276;SDS011;66330;52.166;9.978;2023-05-07T08:41:05;11.13;;;10.13;;
77276;SDS011;66330;52.166;9.978;2023-05-07T08:43:32;10.63;;;9.70;;
77276;SDS011;66330;52.166;9.978;2023-05-07T08:46:01;10.80;;;9.93;;
77276;SDS011;66330;52.166;9.978;2023-05-07T08:48:27;10.73;;;9.73;;
77276;SDS011;66330;52.166;9.978;2023-05-07T08:50:57;10.77;;;9.80;;
77276;SDS011;66330;52.166;9.978;2023-05-07T08:53:23;9.13;;;8.33;;
77276;SDS011;66330;52.166;9.978;2023-05-07T08:55:48;8.50;;;7.80;;
77276;SDS011;66330;52.166;9.978;2023-05-07T08:58:14;10.03;;;9.10;;
77276;SDS011;66330;52.166;9.978;2023-05-07T09:00:40;9.03;;;8.23;;
77276;SDS011;66330;52.166;9.978;2023-05-07T09:03:06;9.30;;;8.40;;
77276;SDS011;66330;52.166;9.978;2023-05-07T09:05:32;9.33;;;8.47;;
77276;SDS011;66330;52.166;9.978;2023-05-07T09:08:01;8.63;;;7.93;;
77276;SDS011;66330;52.166;9.978;2023-05-07T09:10:28;9.70;;;8.90;;
77276;SDS011;66330;52.166;9.978;2023-05-07T09:12:54;9.00;;;8.30;;
77276;SDS011;66330;52.166;9.978;2023-05-07T09:15:20;9.50;;;8.80;;
77276;SDS011;66330;52.166;9.978;2023-05-07T09:17:46;9.50;;;8.80;;
77276;SDS011;66330;52.166;9.978;2023-05-07T09:20:11;9.70;;;8.90;;
77276;SDS011;66330;52.166;9.978;2023-05-07T09:22:37;10.60;;;9.77;;
77276;SDS011;66330;52.166;9.978;2023-05-07T09:25:03;11.40;;;10.30;;
77276;SDS011;66330;52.166;9.978;2023-05-07T09:27:30;12.33;;;11.23;;
77276;SDS011;66330;52.166;9.978;2023-05-07T09:29:56;12.43;;;11.40;;
77276;SDS011;66330;52.166;9.978;2023-05-07T09:32:21;12.53;;;11.37;;
77276;SDS011;66330;52.166;9.978;2023-05-07T09:34:47;12.73;;;11.63;;
77276;SDS011;66330;52.166;9.978;2023-05-07T09:37:13;13.10;;;12.00;;
77276;SDS011;66330;52.166;9.978;2023-05-07T09:39:46;12.97;;;11.87;;
77276;SDS011;66330;52.166;9.978;2023-05-07T09:42:12;13.30;;;12.20;;
77276;SDS011;66330;52.166;9.978;2023-05-07T09:44:43;12.33;;;11.33;;
77276;SDS011;66330;52.166;9.978;2023-05-07T09:47:09;13.93;;;12.73;;
77276;SDS011;66330;52.166;9.978;2023-05-07T09:49:37;13.83;;;12.63;;
77276;SDS011;66330;52.166;9.978;2023-05-07T09:52:07;12.97;;;11.97;;
77276;SDS011;66330;52.166;9.978;2023-05-07T09:54:36;12.70;;;11.60;;
77276;SDS011;66330;52.166;9.978;2023-05-07T09:57:05;14.57;;;13.27;;
77276;SDS011;66330;52.166;9.978;2023-05-07T09:59:32;12.97;;;11.90;;
77276;SDS011;66330;52.166;9.978;2023-05-07T10:01:59;13.53;;;12.33;;
77276;SDS011;66330;52.166;9.978;2023-05-07T10:04:26;14.20;;;13.00;;
77276;SDS011;66330;52.166;9.978;2023-05-07T10:06:52;11.97;;;10.97;;
77276;SDS011;66330;52.166;9.978;2023-05-07T10:09:18;13.40;;;12.20;;
77276;SDS011;66330;52.166;9.978;2023-05-07T10:11:44;13.50;;;12.30;;
77276;SDS011;66330;52.166;9.978;2023-05-07T10:14:11;13.17;;;12.07;;
77276;SDS011;66330;52.166;9.978;2023-05-07T10:16:37;13.23;;;11.97;;
77276;SDS011;66330;52.166;9.978;2023-05-07T10:19:03;12.93;;;11.90;;
77276;SDS011;66330;52.166;9.978;2023-05-07T10:21:29;13.30;;;12.20;;
77276;SDS011;66330;52.166;9.978;2023-05-07T10:23:59;13.20;;;12.20;;
77276;SDS011;66330;52.166;9.978;2023-05-07T10:26:45;12.50;;;11.40;;
77276;SDS011;66330;52.166;9.978;2023-05-07T10:35:10;12.90;;;11.80;;
77276;SDS011;66330;52.166;9.978;2023-05-07T10:37:44;11.77;;;10.87;;
77276;SDS011;66330;52.166;9.978;2023-05-07T10:40:10;11.70;;;10.70;;
77276;SDS011;66330;52.166;9.978;2023-05-07T10:42:37;12.77;;;11.67;;
77276;SDS011;66330;52.166;9.978;2023-05-07T10:45:12;12.37;;;11.27;;
77276;SDS011;66330;52.166;9.978;2023-05-07T10:50:40;12.10;;;11.00;;
77276;SDS011;66330;52.166;9.978;2023-05-07T10:55:42;12.20;;;11.20;;
77276;SDS011;66330;52.166;9.978;2023-05-07T11:00:46;11.00;;;10.07;;
77276;SDS011;66330;52.166;9.978;2023-05-07T11:03:12;11.13;;;10.13;;
77276;SDS011;66330;52.166;9.978;2023-05-07T11:05:39;11.43;;;10.63;;
77276;SDS011;66330;52.166;9.978;2023-05-07T11:08:06;11.43;;;10.53;;
77276;SDS011;66330;52.166;9.978;2023-05-07T11:13:17;10.40;;;9.50;;
77276;SDS011;66330;52.166;9.978;2023-05-07T11:15:44;10.40;;;9.60;;
77276;SDS011;66330;52.166;9.978;2023-05-07T11:18:12;9.53;;;8.83;;
77276;SDS011;66330;52.166;9.978;2023-05-07T11:26:00;10.70;;;9.90;;
77276;SDS011;66330;52.166;9.978;2023-05-07T11:28:43;10.07;;;9.37;;
77276;SDS011;66330;52.166;9.978;2023-05-07T11:31:09;10.20;;;9.47;;
77276;SDS011;66330;52.166;9.978;2023-05-07T11:33:35;10.63;;;9.63;;
77276;SDS011;66330;52.166;9.978;2023-05-07T11:36:02;10.87;;;9.97;;
77276;SDS011;66330;52.166;9.978;2023-05-07T11:38:35;11.30;;;10.40;;
77276;SDS011;66330;52.166;9.978;2023-05-07T11:41:02;9.50;;;8.80;;
77276;SDS011;66330;52.166;9.978;2023-05-07T11:43:30;10.20;;;9.40;;
77276;SDS011;66330;52.166;9.978;2023-05-07T11:46:04;9.70;;;9.00;;
77276;SDS011;66330;52.166;9.978;2023-05-07T11:48:39;8.53;;;7.93;;
77276;SDS011;66330;52.166;9.978;2023-05-07T11:51:06;8.00;;;7.50;;
77276;SDS011;66330;52.166;9.978;2023-05-07T11:53:40;8.40;;;7.80;;
77276;SDS011;66330;52.166;9.978;2023-05-07T11:56:08;8.10;;;7.60;;
77276;SDS011;66330;52.166;9.978;2023-05-07T11:58:36;9.20;;;8.60;;
77276;SDS011;66330;52.166;9.978;2023-05-07T12:01:02;8.83;;;8.23;;
77276;SDS011;66330;52.166;9.978;2023-05-07T12:03:27;9.23;;;8.53;;
77276;SDS011;66330;52.166;9.978;2023-05-07T12:05:53;8.10;;;7.50;;
77276;SDS011;66330;52.166;9.978;2023-05-07T12:08:19;8.63;;;8.00;;
77276;SDS011;66330;52.166;9.978;2023-05-07T12:10:46;8.80;;;8.20;;
77276;SDS011;66330;52.166;9.978;2023-05-07T12:13:14;8.00;;;7.50;;
77276;SDS011;66330;52.166;9.978;2023-05-07T12:15:40;7.70;;;7.20;;
77276;SDS011;66330;52.166;9.978;2023-05-07T12:18:06;8.27;;;7.67;;
77276;SDS011;66330;52.166;9.978;2023-05-07T12:20:33;8.57;;;7.97;;
77276;SDS011;66330;52.166;9.978;2023-05-07T12:23:00;8.73;;;8.13;;
77276;SDS011;66330;52.166;9.978;2023-05-07T12:25:26;7.77;;;7.27;;
77276;SDS011;66330;52.166;9.978;2023-05-07T12:27:55;7.30;;;6.83;;
77276;SDS011;66330;52.166;9.978;2023-05-07T12:30:23;8.17;;;7.67;;
77276;SDS011;66330;52.166;9.978;2023-05-07T12:32:52;8.50;;;7.90;;
77276;SDS011;66330;52.166;9.978;2023-05-07T12:35:25;8.73;;;8.13;;
77276;SDS011;66330;52.166;9.978;2023-05-07T12:37:58;9.50;;;8.80;;
77276;SDS011;66330;52.166;9.978;2023-05-07T12:40:38;9.97;;;9.27;;
77276;SDS011;66330;52.166;9.978;2023-05-07T12:43:23;9.73;;;9.07;;
77276;SDS011;66330;52.166;9.978;2023-05-07T12:45:50;9.50;;;8.90;;
77276;SDS011;66330;52.166;9.978;2023-05-07T12:48:17;9.20;;;8.60;;
77276;SDS011;66330;52.166;9.978;2023-05-07T12:50:43;9.80;;;9.13;;
77276;SDS011;66330;52.166;9.978;2023-05-07T12:53:10;10.83;;;10.03;;
77276;SDS011;66330;52.166;9.978;2023-05-07T12:55:43;10.97;;;10.20;;
77276;SDS011;66330;52.166;9.978;2023-05-07T12:58:17;12.57;;;11.57;;
77276;SDS011;66330;52.166;9.978;2023-05-07T13:00:44;11.37;;;10.57;;
77276;SDS011;66330;52.166;9.978;2023-05-07T13:03:16;9.90;;;9.20;;
77276;SDS011;66330;52.166;9.978;2023-05-07T13:05:47;10.83;;;10.03;;
77276;SDS011;66330;52.166;9.978;2023-05-07T13:08:13;10.17;;;9.47;;
77276;SDS011;66330;52.166;9.978;2023-05-07T13:10:49;12.30;;;11.50;;
77276;SDS011;66330;52.166;9.978;2023-05-07T13:13:14;11.80;;;10.90;;
77276;SDS011;66330;52.166;9.978;2023-05-07T13:15:40;11.80;;;10.80;;
77276;SDS011;66330;52.166;9.978;2023-05-07T13:18:05;12.00;;;11.20;;
77276;SDS011;66330;52.166;9.978;2023-05-07T13:20:31;10.60;;;9.90;;
77276;SDS011;66330;52.166;9.978;2023-05-07T13:22:57;11.30;;;10.60;;
77276;SDS011;66330;52.166;9.978;2023-05-07T13:25:22;10.47;;;9.87;;
77276;SDS011;66330;52.166;9.978;2023-05-07T13:27:48;9.40;;;8.80;;
77276;SDS011;66330;52.166;9.978;2023-05-07T13:30:13;11.53;;;10.83;;
77276;SDS011;66330;52.166;9.978;2023-05-07T13:32:39;11.83;;;11.03;;
77276;SDS011;66330;52.166;9.978;2023-05-07T13:35:05;10.53;;;9.90;;
77276;SDS011;66330;52.166;9.978;2023-05-07T13:37:31;8.97;;;8.23;;
77276;SDS011;66330;52.166;9.978;2023-05-07T13:39:56;10.17;;;9.57;;
77276;SDS011;66330;52.166;9.978;2023-05-07T13:42:22;10.33;;;9.63;;
77276;SDS011;66330;52.166;9.978;2023-05-07T13:44:47;10.17;;;9.47;;
77276;SDS011;66330;52.166;9.978;2023-05-07T13:47:13;9.80;;;9.20;;
77276;SDS011;66330;52.166;9.978;2023-05-07T13:49:38;8.57;;;7.97;;
77276;SDS011;66330;52.166;9.978;2023-05-07T13:52:04;8.43;;;7.83;;
77276;SDS011;66330;52.166;9.978;2023-05-07T13:54:29;8.80;;;8.30;;
77276;SDS011;66330;52.166;9.978;2023-05-07T13:56:55;8.90;;;8.30;;
77276;SDS011;66330;52.166;9.978;2023-05-07T13:59:20;8.27;;;7.77;;
77276;SDS011;66330;52.166;9.978;2023-05-07T14:01:46;8.30;;;7.80;;
77276;SDS011;66330;52.166;9.978;2023-05-07T14:04:12;8.80;;;8.30;;
77276;SDS011;66330;52.166;9.978;2023-05-07T14:06:37;8.83;;;8.23;;
77276;SDS011;66330;52.166;9.978;2023-05-07T14:09:03;8.80;;;8.00;;
77276;SDS011;66330;52.166;9.978;2023-05-07T14:11:29;8.87;;;8.30;;
77276;SDS011;66330;52.166;9.978;2023-05-07T14:13:55;8.93;;;8.30;;
77276;SDS011;66330;52.166;9.978;2023-05-07T14:16:21;9.77;;;9.07;;
77276;SDS011;66330;52.166;9.978;2023-05-07T14:18:47;9.33;;;8.73;;
77276;SDS011;66330;52.166;9.978;2023-05-07T14:21:12;9.03;;;8.43;;
77276;SDS011;66330;52.166;9.978;2023-05-07T14:23:38;9.43;;;8.83;;
77276;SDS011;66330;52.166;9.978;2023-05-07T14:26:04;9.17;;;8.47;;
77276;SDS011;66330;52.166;9.978;2023-05-07T14:28:30;10.90;;;10.10;;
77276;SDS011;66330;52.166;9.978;2023-05-07T14:30:56;11.23;;;10.47;;
77276;SDS011;66330;52.166;9.978;2023-05-07T14:33:21;11.40;;;10.60;;
77276;SDS011;66330;52.166;9.978;2023-05-07T14:35:47;11.40;;;10.37;;
77276;SDS011;66330;52.166;9.978;2023-05-07T14:38:14;10.57;;;9.77;;
77276;SDS011;66330;52.166;9.978;2023-05-07T14:40:40;11.13;;;10.40;;
77276;SDS011;66330;52.166;9.978;2023-05-07T14:43:06;11.70;;;10.80;;
77276;SDS011;66330;52.166;9.978;2023-05-07T14:45:31;10.90;;;10.10;;
77276;SDS011;66330;52.166;9.978;2023-05-07T14:47:57;12.30;;;11.40;;